Time;durP1;ratioP1;P1;durP2;ratioP2;P2;SDS_P1;SDS_P2;PMS_P1;PMS_P2;Temp;Humidity;BMP_temperature;BMP_pressure;BME280_temperature;BME280_humidity;BME280_pressure;Samples;Min_cycle;Max_cycle;Signal;HPM_P1;HPM_P2
2022/05/02 00:01:27;;;;;;;41.40;28.67;;;;;;;;;;5063672;28;20413;-85
2022/05/02 00:03:54;;;;;;;40.30;27.90;;;;;;;;;;5064250;28;20406;-85
2022/05/02 00:06:20;;;;;;;37.83;26.77;;;;;;;;;;5063909;28;20405;-85
2022/05/02 00:08:46;;;;;;;37.53;26.03;;;;;;;;;;5064139;28;20405;-85
2022/05/02 00:11:12;;;;;;;42.50;29.53;;;;;;;;;;5062997;28;20421;-85
2022/05/02 00:13:39;;;;;;;39.20;28.37;;;;;;;;;;5062969;28;20402;-84
2022/05/02 00:16:07;;;;;;;42.80;29.03;;;;;;;;;;5063435;28;20820;-85
2022/05/02 00:18:33;;;;;;;38.50;28.10;;;;;;;;;;5062988;28;20452;-85
2022/05/02 00:20:59;;;;;;;39.53;28.60;;;;;;;;;;5045553;28;20797;-84
2022/05/02 00:23:25;;;;;;;36.40;26.63;;;;;;;;;;5062983;28;20935;-85
2022/05/02 00:25:51;;;;;;;43.93;28.00;;;;;;;;;;5045441;28;20449;-86
2022/05/02 00:28:17;;;;;;;37.37;26.80;;;;;;;;;;5063309;28;20882;-86
2022/05/02 00:30:44;;;;;;;37.53;25.87;;;;;;;;;;5044993;28;20452;-85
2022/05/02 00:33:10;;;;;;;45.70;28.53;;;;;;;;;;5062848;28;20596;-84
2022/05/02 00:35:36;;;;;;;39.90;27.40;;;;;;;;;;5062773;28;20413;-85
2022/05/02 00:38:03;;;;;;;46.63;28.30;;;;;;;;;;5063383;28;20453;-85
2022/05/02 00:40:29;;;;;;;45.50;28.73;;;;;;;;;;5062133;28;20837;-85
2022/05/02 00:42:55;;;;;;;39.77;28.60;;;;;;;;;;5063291;28;20497;-86
2022/05/02 00:45:21;;;;;;;35.30;27.83;;;;;;;;;;5044878;28;20489;-85
2022/05/02 00:47:55;;;;;;;41.77;26.20;;;;;;;;;;5043000;28;20402;-83
2022/05/02 00:50:41;;;;;;;37.70;24.93;;;;;;;;;;5045288;28;20430;-84
2022/05/02 00:53:09;;;;;;;41.70;27.70;;;;;;;;;;5058980;28;20385;-85
2022/05/02 00:55:35;;;;;;;34.90;25.00;;;;;;;;;;5040089;28;20536;-84
2022/05/02 00:58:02;;;;;;;34.10;25.23;;;;;;;;;;5060099;28;20453;-85
2022/05/02 01:00:29;;;;;;;35.73;25.40;;;;;;;;;;5060540;28;20556;-85
2022/05/02 01:02:55;;;;;;;35.60;25.20;;;;;;;;;;5060816;28;20932;-84
2022/05/02 01:05:22;;;;;;;37.60;25.47;;;;;;;;;;5079322;28;20433;-85
2022/05/02 01:07:48;;;;;;;35.67;24.27;;;;;;;;;;5064404;28;20401;-84
2022/05/02 01:10:17;;;;;;;33.70;26.70;;;;;;;;;;5073633;28;20523;-85
2022/05/02 01:12:43;;;;;;;33.50;24.73;;;;;;;;;;5066508;28;20445;-85
2022/05/02 01:15:09;;;;;;;34.10;24.33;;;;;;;;;;5083758;28;20416;-85
2022/05/02 01:17:37;;;;;;;35.77;24.17;;;;;;;;;;5065203;28;20423;-85
2022/05/02 01:20:07;;;;;;;37.80;24.60;;;;;;;;;;5083431;28;20511;-85
2022/05/02 01:22:33;;;;;;;34.90;24.10;;;;;;;;;;5083091;28;20400;-84
2022/05/02 01:24:59;;;;;;;35.10;23.37;;;;;;;;;;5083361;28;20405;-85
2022/05/02 01:27:25;;;;;;;33.07;22.50;;;;;;;;;;5083012;28;20401;-85
2022/05/02 01:29:51;;;;;;;33.60;23.60;;;;;;;;;;5081714;28;20503;-85
2022/05/02 01:32:18;;;;;;;35.00;25.47;;;;;;;;;;5082436;28;20413;-85
2022/05/02 01:34:44;;;;;;;32.83;23.07;;;;;;;;;;5082573;28;20411;-83
2022/05/02 01:37:11;;;;;;;34.60;24.00;;;;;;;;;;5082188;28;20397;-85
2022/05/02 01:39:37;;;;;;;34.03;24.10;;;;;;;;;;5063845;28;20462;-86
2022/05/02 01:42:07;;;;;;;30.70;23.33;;;;;;;;;;5082132;28;20405;-85
2022/05/02 01:44:34;;;;;;;31.87;23.93;;;;;;;;;;5082210;28;20405;-86
2022/05/02 01:47:00;;;;;;;34.70;24.20;;;;;;;;;;5065205;28;20481;-84
2022/05/02 01:49:26;;;;;;;36.17;24.63;;;;;;;;;;5067539;28;20428;-85
2022/05/02 01:51:52;;;;;;;31.80;23.20;;;;;;;;;;5066954;28;20424;-84
2022/05/02 01:54:18;;;;;;;34.73;25.20;;;;;;;;;;5084313;28;20401;-85
2022/05/02 01:56:44;;;;;;;34.43;25.20;;;;;;;;;;5083793;28;20401;-85
2022/05/02 01:59:10;;;;;;;42.83;26.53;;;;;;;;;;5065082;28;20570;-86
2022/05/02 02:01:36;;;;;;;35.33;24.93;;;;;;;;;;5081780;28;20468;-85
2022/05/02 02:06:49;;;;;;;36.20;24.43;;;;;;;;;;5082154;28;20388;-84
2022/05/02 02:09:15;;;;;;;38.27;25.03;;;;;;;;;;5063258;28;20420;-86
2022/05/02 02:11:41;;;;;;;36.60;25.07;;;;;;;;;;5081786;28;20401;-86
2022/05/02 02:14:07;;;;;;;38.20;24.50;;;;;;;;;;5081696;28;20773;-86
2022/05/02 02:16:33;;;;;;;32.67;23.13;;;;;;;;;;5068955;28;20401;-85
2022/05/02 02:18:59;;;;;;;34.50;24.30;;;;;;;;;;5097647;28;20447;-84
2022/05/02 02:21:26;;;;;;;40.57;25.83;;;;;;;;;;5094952;28;20476;-85
2022/05/02 02:23:52;;;;;;;38.10;25.73;;;;;;;;;;5087983;28;20405;-86
2022/05/02 02:26:18;;;;;;;37.20;24.10;;;;;;;;;;5084667;28;20468;-86
2022/05/02 02:28:44;;;;;;;30.83;21.57;;;;;;;;;;5082964;28;20408;-84
2022/05/02 02:31:10;;;;;;;29.50;22.27;;;;;;;;;;5081945;28;20920;-85
2022/05/02 02:33:37;;;;;;;37.80;23.80;;;;;;;;;;5110421;22;20485;-80
2022/05/02 02:36:04;;;;;;;32.53;21.07;;;;;;;;;;5065693;28;20484;-82
2022/05/02 02:38:30;;;;;;;29.30;21.17;;;;;;;;;;5066019;28;20437;-81
2022/05/02 02:40:56;;;;;;;34.67;23.60;;;;;;;;;;5048676;28;20409;-82
2022/05/02 02:43:22;;;;;;;33.30;24.27;;;;;;;;;;5065501;28;20449;-82
2022/05/02 02:45:48;;;;;;;31.70;23.17;;;;;;;;;;5065854;28;20428;-82
2022/05/02 02:48:14;;;;;;;26.83;20.70;;;;;;;;;;5066223;28;20774;-81
2022/05/02 02:50:40;;;;;;;30.90;21.50;;;;;;;;;;5066528;28;20417;-83
2022/05/02 02:53:06;;;;;;;33.13;21.23;;;;;;;;;;5046925;28;20441;-82
2022/05/02 02:55:33;;;;;;;32.13;22.10;;;;;;;;;;5065315;28;20488;-82
2022/05/02 02:57:59;;;;;;;30.77;22.67;;;;;;;;;;5065174;28;20441;-82
2022/05/02 03:00:25;;;;;;;34.17;21.80;;;;;;;;;;5065564;28;20459;-83
2022/05/02 03:02:52;;;;;;;29.27;21.80;;;;;;;;;;5065073;28;20425;-82
2022/05/02 03:08:03;;;;;;;31.30;23.37;;;;;;;;;;5044778;28;20902;-82
2022/05/02 03:10:29;;;;;;;32.70;22.57;;;;;;;;;;5044604;28;20835;-83
2022/05/02 03:12:56;;;;;;;38.30;23.10;;;;;;;;;;5044832;28;20433;-82
2022/05/02 03:15:22;;;;;;;33.20;21.47;;;;;;;;;;5048258;28;20398;-82
2022/05/02 03:17:48;;;;;;;30.23;20.70;;;;;;;;;;5047821;28;20484;-82
2022/05/02 03:20:14;;;;;;;33.70;22.73;;;;;;;;;;5047206;28;20405;-82
2022/05/02 03:22:41;;;;;;;32.20;20.70;;;;;;;;;;5046594;28;20429;-83
2022/05/02 03:25:07;;;;;;;32.20;21.10;;;;;;;;;;5046110;28;20820;-83
2022/05/02 03:27:33;;;;;;;31.17;22.37;;;;;;;;;;5045339;28;20782;-83
2022/05/02 03:29:59;;;;;;;31.37;20.93;;;;;;;;;;5044366;28;20406;-83
2022/05/02 03:32:25;;;;;;;25.83;18.67;;;;;;;;;;5026847;28;20414;-83
2022/05/02 03:34:51;;;;;;;28.40;20.27;;;;;;;;;;5043179;28;20414;-83
2022/05/02 03:37:18;;;;;;;27.47;19.97;;;;;;;;;;5042572;28;20409;-82
2022/05/02 03:39:44;;;;;;;26.67;19.07;;;;;;;;;;5042486;28;20440;-83
2022/05/02 03:42:10;;;;;;;28.07;19.73;;;;;;;;;;5042415;28;20798;-82
2022/05/02 03:44:36;;;;;;;25.33;19.53;;;;;;;;;;5033646;28;20430;-81
2022/05/02 03:47:02;;;;;;;31.63;21.03;;;;;;;;;;5057780;28;20395;-81
2022/05/02 03:49:28;;;;;;;31.47;20.13;;;;;;;;;;5053988;28;20410;-82
2022/05/02 03:51:54;;;;;;;25.17;17.37;;;;;;;;;;5049683;28;20440;-83
2022/05/02 03:54:20;;;;;;;24.53;17.67;;;;;;;;;;5026951;28;20441;-83
2022/05/02 03:56:46;;;;;;;32.20;20.73;;;;;;;;;;5042188;28;20417;-83
2022/05/02 03:59:12;;;;;;;27.47;19.17;;;;;;;;;;5041519;28;20449;-83
2022/05/02 04:01:40;;;;;;;27.60;18.77;;;;;;;;;;5043255;28;20406;-83
2022/05/02 04:04:06;;;;;;;32.00;18.87;;;;;;;;;;5042555;28;20418;-83
2022/05/02 04:06:32;;;;;;;30.47;18.30;;;;;;;;;;5024859;28;20414;-84
2022/05/02 04:08:58;;;;;;;22.83;18.13;;;;;;;;;;5042606;28;20544;-82
2022/05/02 04:11:24;;;;;;;25.97;19.00;;;;;;;;;;5042403;28;20414;-83
2022/05/02 04:13:50;;;;;;;26.57;19.17;;;;;;;;;;5042929;28;20434;-83
2022/05/02 04:16:16;;;;;;;27.80;18.37;;;;;;;;;;5042715;28;20406;-84
2022/05/02 04:18:43;;;;;;;26.30;18.37;;;;;;;;;;5042148;28;20449;-83
2022/05/02 04:21:09;;;;;;;25.13;18.33;;;;;;;;;;5042561;28;20406;-83
2022/05/02 04:23:35;;;;;;;22.93;17.37;;;;;;;;;;5042655;28;20423;-83
2022/05/02 04:26:02;;;;;;;24.70;17.50;;;;;;;;;;5041765;28;20493;-83
2022/05/02 04:28:30;;;;;;;23.33;17.57;;;;;;;;;;5041660;28;20436;-83
2022/05/02 04:30:56;;;;;;;22.80;17.70;;;;;;;;;;5041207;28;20918;-83
2022/05/02 04:33:23;;;;;;;24.83;15.87;;;;;;;;;;5023137;28;20454;-83
2022/05/02 04:35:50;;;;;;;21.03;15.73;;;;;;;;;;5024006;28;20415;-83
2022/05/02 04:38:16;;;;;;;21.20;16.00;;;;;;;;;;5041907;28;20446;-83
2022/05/02 04:40:42;;;;;;;23.33;17.63;;;;;;;;;;5023323;28;20403;-83
2022/05/02 04:43:09;;;;;;;19.23;14.90;;;;;;;;;;5023823;28;20434;-82
2022/05/02 04:45:35;;;;;;;19.83;14.50;;;;;;;;;;5041135;28;20413;-83
2022/05/02 04:48:01;;;;;;;22.70;15.80;;;;;;;;;;5041872;28;20413;-83
2022/05/02 04:50:27;;;;;;;22.87;14.70;;;;;;;;;;5041585;28;20741;-83
2022/05/02 04:52:53;;;;;;;18.50;14.50;;;;;;;;;;5041381;28;20510;-83
2022/05/02 04:55:20;;;;;;;17.97;14.50;;;;;;;;;;5041414;28;20402;-83
2022/05/02 04:57:46;;;;;;;21.73;16.00;;;;;;;;;;5024007;28;20419;-83
2022/05/02 05:00:12;;;;;;;16.57;13.40;;;;;;;;;;5042663;28;20411;-82
2022/05/02 05:02:38;;;;;;;19.87;15.00;;;;;;;;;;5041205;28;20425;-83
2022/05/02 05:05:05;;;;;;;20.60;15.77;;;;;;;;;;5041052;28;20771;-84
2022/05/02 05:07:31;;;;;;;17.77;14.47;;;;;;;;;;5041915;28;20414;-84
2022/05/02 05:09:57;;;;;;;20.63;15.37;;;;;;;;;;5041027;28;20402;-84
2022/05/02 05:12:38;;;;;;;19.10;13.60;;;;;;;;;;5024386;28;20442;-83
2022/05/02 05:17:55;;;;;;;18.70;15.00;;;;;;;;;;5044691;28;20916;-81
2022/05/02 05:20:40;;;;;;;19.20;14.80;;;;;;;;;;5048912;28;20421;-84
2022/05/02 05:23:25;;;;;;;17.53;13.83;;;;;;;;;;5041141;28;20418;-84
2022/05/02 05:25:58;;;;;;;25.00;15.00;;;;;;;;;;5049798;28;20410;-83
2022/05/02 05:28:24;;;;;;;20.37;13.70;;;;;;;;;;5049579;28;20391;-83
2022/05/02 05:30:55;;;;;;;16.90;13.10;;;;;;;;;;5048103;28;20828;-84
2022/05/02 05:33:40;;;;;;;16.57;13.77;;;;;;;;;;5042829;28;20450;-84
2022/05/02 05:36:29;;;;;;;15.60;13.00;;;;;;;;;;5042929;28;20421;-83
2022/05/02 05:39:02;;;;;;;16.83;13.40;;;;;;;;;;5029817;28;20465;-84
2022/05/02 05:41:47;;;;;;;18.37;14.60;;;;;;;;;;5023190;28;20418;-84
2022/05/02 05:44:32;;;;;;;17.17;12.57;;;;;;;;;;5042499;28;20417;-85
2022/05/02 05:47:06;;;;;;;17.30;15.10;;;;;;;;;;5023363;28;20429;-84
2022/05/02 05:49:35;;;;;;;19.63;14.07;;;;;;;;;;5040631;28;20891;-86
2022/05/02 05:52:09;;;;;;;20.37;14.67;;;;;;;;;;5041632;28;20433;-85
2022/05/02 05:54:38;;;;;;;16.97;13.63;;;;;;;;;;5041327;28;21044;-86
2022/05/02 05:57:04;;;;;;;20.43;13.87;;;;;;;;;;5042280;28;20501;-84
2022/05/02 05:59:42;;;;;;;17.00;14.50;;;;;;;;;;5076462;28;20569;-85
2022/05/02 06:02:08;;;;;;;18.10;13.30;;;;;;;;;;5081856;28;20471;-85
2022/05/02 06:04:35;;;;;;;16.20;13.07;;;;;;;;;;5071363;28;20735;-85
2022/05/02 06:07:01;;;;;;;15.00;12.50;;;;;;;;;;5059467;28;20500;-85
2022/05/02 06:09:28;;;;;;;18.37;13.53;;;;;;;;;;5056884;28;20401;-85
2022/05/02 06:11:57;;;;;;;17.47;12.90;;;;;;;;;;5063684;28;20416;-84
2022/05/02 06:14:26;;;;;;;15.97;13.80;;;;;;;;;;5085711;28;20429;-83
2022/05/02 06:19:59;;;;;;;16.35;12.77;;;;;;;;;;5028976;28;20434;-85
2022/05/02 06:22:27;;;;;;;17.83;13.55;;;;;;;;;;5014626;28;20432;-85
2022/05/02 06:24:53;;;;;;;15.57;13.20;;;;;;;;;;5026525;28;20608;-86
2022/05/02 06:27:19;;;;;;;16.87;12.33;;;;;;;;;;5061592;28;20409;-86
2022/05/02 06:29:46;;;;;;;25.07;12.03;;;;;;;;;;5068810;28;20790;-86
2022/05/02 06:32:13;;;;;;;16.63;12.32;;;;;;;;;;5068598;28;20408;-85
2022/05/02 06:34:40;;;;;;;16.77;12.83;;;;;;;;;;5056270;28;20199;-86
2022/05/02 06:37:18;;;;;;;16.60;13.93;;;;;;;;;;5055547;28;20405;-86
2022/05/02 06:39:48;;;;;;;16.30;12.60;;;;;;;;;;5057928;28;20421;-85
2022/05/02 06:42:21;;;;;;;16.60;13.10;;;;;;;;;;5062475;28;20408;-85
2022/05/02 06:44:47;;;;;;;15.33;12.00;;;;;;;;;;5092414;28;20385;-85
2022/05/02 06:47:13;;;;;;;15.93;13.50;;;;;;;;;;5083097;28;20408;-85
2022/05/02 06:49:42;;;;;;;15.30;12.10;;;;;;;;;;5060610;28;20410;-84
2022/05/02 06:52:10;;;;;;;16.37;14.70;;;;;;;;;;5075462;28;20410;-83
2022/05/02 06:54:39;;;;;;;16.30;13.80;;;;;;;;;;5060592;28;20497;-84
2022/05/02 06:57:23;;;;;;;17.07;14.20;;;;;;;;;;5056977;28;20936;-83
2022/05/02 06:59:55;;;;;;;18.50;15.30;;;;;;;;;;5054963;28;20427;-83
2022/05/02 07:02:40;;;;;;;17.50;14.40;;;;;;;;;;5053686;28;20199;-83
2022/05/02 07:05:11;;;;;;;22.10;18.80;;;;;;;;;;5052123;28;20758;-84
2022/05/02 07:07:40;;;;;;;20.93;17.83;;;;;;;;;;5075704;28;20423;-84
2022/05/02 07:10:12;;;;;;;20.23;17.03;;;;;;;;;;5046557;28;20498;-85
2022/05/02 07:12:48;;;;;;;24.35;18.40;;;;;;;;;;5040114;28;20454;-83
2022/05/02 07:15:29;;;;;;;21.63;18.17;;;;;;;;;;5055898;28;20171;-84
2022/05/02 07:17:55;;;;;;;20.47;16.33;;;;;;;;;;5043193;28;20476;-84
2022/05/02 07:20:27;;;;;;;21.37;16.83;;;;;;;;;;5041921;28;20497;-85
2022/05/02 07:22:53;;;;;;;24.70;18.53;;;;;;;;;;5037987;28;20931;-84
2022/05/02 07:25:21;;;;;;;22.97;18.47;;;;;;;;;;5040974;28;20413;-84
2022/05/02 07:27:58;;;;;;;23.70;19.23;;;;;;;;;;5040720;28;20417;-85
2022/05/02 07:30:25;;;;;;;23.77;18.80;;;;;;;;;;5043173;28;20437;-83
2022/05/02 07:32:53;;;;;;;25.53;18.93;;;;;;;;;;5043810;28;20447;-85
2022/05/02 07:35:21;;;;;;;24.88;19.50;;;;;;;;;;5035675;28;20419;-85
2022/05/02 07:37:47;;;;;;;25.30;19.93;;;;;;;;;;5045124;28;20269;-85
2022/05/02 07:40:14;;;;;;;25.87;19.93;;;;;;;;;;5054609;28;20401;-85
2022/05/02 07:42:42;;;;;;;25.02;20.95;;;;;;;;;;5044268;28;20426;-85
2022/05/02 07:45:10;;;;;;;23.17;20.13;;;;;;;;;;5053145;28;20167;-85
2022/05/02 07:47:36;;;;;;;24.47;20.47;;;;;;;;;;5050418;28;20434;-85
2022/05/02 07:50:03;;;;;;;25.17;20.58;;;;;;;;;;5054962;28;20433;-85
2022/05/02 07:52:31;;;;;;;24.70;21.00;;;;;;;;;;5059010;28;20597;-86
2022/05/02 07:54:59;;;;;;;24.97;19.50;;;;;;;;;;5047228;28;20481;-85
2022/05/02 07:57:25;;;;;;;26.23;20.43;;;;;;;;;;5058391;28;20410;-86
2022/05/02 07:59:52;;;;;;;22.38;19.92;;;;;;;;;;5052710;28;20400;-86
2022/05/02 08:02:19;;;;;;;19.70;17.57;;;;;;;;;;5050688;28;20190;-86
2022/05/02 08:04:45;;;;;;;20.77;16.20;;;;;;;;;;5060158;28;20418;-86
2022/05/02 08:07:30;;;;;;;16.90;13.90;;;;;;;;;;5049189;28;20749;-87
2022/05/02 08:10:14;;;;;;;19.17;15.55;;;;;;;;;;5059078;28;20434;-86
2022/05/02 08:12:41;;;;;;;17.60;13.87;;;;;;;;;;5059537;28;20171;-86
2022/05/02 08:15:13;;;;;;;16.07;12.83;;;;;;;;;;5030166;28;20417;-85
2022/05/02 08:17:52;;;;;;;16.70;13.70;;;;;;;;;;5051229;28;20994;-84
2022/05/02 08:20:26;;;;;;;17.33;15.43;;;;;;;;;;5054651;28;20400;-86
2022/05/02 08:28:54;;;;;;;17.80;14.80;;;;;;;;;;5067938;28;20473;-84
2022/05/02 08:31:25;;;;;;;20.07;16.07;;;;;;;;;;5058125;28;20412;-85
2022/05/02 08:34:05;;;;;;;17.47;15.07;;;;;;;;;;5062713;28;20410;-84
2022/05/02 08:36:37;;;;;;;17.53;14.93;;;;;;;;;;5061784;28;20403;-85
2022/05/02 08:39:07;;;;;;;18.43;16.10;;;;;;;;;;5048415;28;20480;-86
2022/05/02 08:44:27;;;;;;;18.07;14.17;;;;;;;;;;5046193;28;20221;-81
2022/05/02 08:47:15;;;;;;;18.50;16.50;;;;;;;;;;5062513;28;20418;-80
2022/05/02 08:49:44;;;;;;;16.93;14.63;;;;;;;;;;5061129;28;20411;-81
2022/05/02 08:52:25;;;;;;;18.97;16.17;;;;;;;;;;5049479;28;20457;-81
2022/05/02 08:54:51;;;;;;;18.30;16.30;;;;;;;;;;5050012;28;20406;-81
2022/05/02 08:57:31;;;;;;;18.63;15.87;;;;;;;;;;5048065;28;20508;-82
2022/05/02 08:59:58;;;;;;;17.13;14.70;;;;;;;;;;5030640;28;20422;-81
2022/05/02 09:02:24;;;;;;;18.70;15.40;;;;;;;;;;5048838;28;20439;-81
2022/05/02 09:05:07;;;;;;;17.67;15.38;;;;;;;;;;5044332;28;20421;-81
2022/05/02 09:07:36;;;;;;;17.93;16.03;;;;;;;;;;5045958;28;20171;-82
2022/05/02 09:10:07;;;;;;;16.97;15.17;;;;;;;;;;5039055;28;20774;-83
2022/05/02 09:12:33;;;;;;;18.08;15.40;;;;;;;;;;5041354;28;20701;-82
2022/05/02 09:15:25;;;;;;;18.60;16.53;;;;;;;;;;5039588;28;20180;-82
2022/05/02 09:17:51;;;;;;;16.97;15.17;;;;;;;;;;5016929;28;20457;-82
2022/05/02 09:20:40;;;;;;;19.13;17.10;;;;;;;;;;5037897;28;20419;-82
2022/05/02 09:23:25;;;;;;;19.70;16.70;;;;;;;;;;5036574;28;20468;-82
2022/05/02 09:26:20;;;;;;;18.70;16.37;;;;;;;;;;5028657;28;20421;-83
2022/05/02 09:29:06;;;;;;;17.57;15.77;;;;;;;;;;5049003;28;20498;-82
2022/05/02 09:31:35;;;;;;;17.43;15.57;;;;;;;;;;5034070;28;20426;-82
2022/05/02 09:34:16;;;;;;;16.50;14.40;;;;;;;;;;5024419;28;20407;-81
2022/05/02 09:36:42;;;;;;;18.03;16.03;;;;;;;;;;5025164;28;20911;-83
2022/05/02 09:39:15;;;;;;;15.87;13.77;;;;;;;;;;5031873;28;20450;-82
2022/05/02 09:41:41;;;;;;;19.10;16.73;;;;;;;;;;5055963;28;20406;-83
2022/05/02 09:50:25;;;;;;;21.53;14.03;;;;;;;;;;5034433;28;21076;-82
2022/05/02 09:53:09;;;;;;;15.37;13.80;;;;;;;;;;5037442;28;20431;-81
2022/05/02 09:58:34;;;;;;;15.53;13.33;;;;;;;;;;5011259;28;20477;-82
2022/05/02 10:01:11;;;;;;;15.13;13.30;;;;;;;;;;5043780;28;20391;-81
2022/05/02 10:03:37;;;;;;;13.60;12.20;;;;;;;;;;5035717;28;20425;-83
2022/05/02 10:06:11;;;;;;;12.40;11.10;;;;;;;;;;5034912;28;20513;-82
2022/05/02 10:08:37;;;;;;;13.50;12.10;;;;;;;;;;5042275;28;20413;-82
2022/05/02 10:11:07;;;;;;;12.70;10.47;;;;;;;;;;5028695;28;20911;-83
2022/05/02 10:13:51;;;;;;;11.80;9.73;;;;;;;;;;5044165;28;20434;-82
2022/05/02 10:16:38;;;;;;;12.27;10.70;;;;;;;;;;5044489;28;20406;-83
2022/05/02 10:19:23;;;;;;;15.53;9.97;;;;;;;;;;5027034;28;20430;-82
2022/05/02 10:21:49;;;;;;;10.70;9.60;;;;;;;;;;5044452;28;20394;-83
2022/05/02 10:24:15;;;;;;;14.57;7.53;;;;;;;;;;5031503;28;20396;-80
2022/05/02 10:26:44;;;;;;;7.17;5.80;;;;;;;;;;5029185;28;20419;-81
2022/05/02 10:29:30;;;;;;;7.13;6.43;;;;;;;;;;5041138;28;20429;-81
2022/05/02 10:32:04;;;;;;;7.30;6.60;;;;;;;;;;5040310;28;20398;-82
2022/05/02 10:34:32;;;;;;;7.53;6.53;;;;;;;;;;5039154;28;20268;-82
2022/05/02 10:37:01;;;;;;;8.17;6.80;;;;;;;;;;5034644;28;20487;-81
2022/05/02 10:39:47;;;;;;;9.43;7.57;;;;;;;;;;5047106;28;20470;-84
2022/05/02 10:42:17;;;;;;;11.50;10.30;;;;;;;;;;5044685;28;20461;-81
2022/05/02 10:44:45;;;;;;;13.23;10.20;;;;;;;;;;5031235;28;20414;-82
2022/05/02 10:47:12;;;;;;;13.73;11.50;;;;;;;;;;5049305;28;20410;-81
2022/05/02 10:49:44;;;;;;;11.87;10.70;;;;;;;;;;5049995;28;20423;-84
2022/05/02 10:52:21;;;;;;;13.10;11.80;;;;;;;;;;5041749;28;20443;-82
2022/05/02 10:54:53;;;;;;;13.83;12.40;;;;;;;;;;5043624;28;20399;-82
2022/05/02 10:57:37;;;;;;;15.73;14.13;;;;;;;;;;5047776;28;20399;-82
2022/05/02 11:00:06;;;;;;;16.10;14.40;;;;;;;;;;5045362;28;20398;-83
2022/05/02 11:02:38;;;;;;;14.73;12.50;;;;;;;;;;5047923;28;20422;-82
2022/05/02 11:05:10;;;;;;;18.50;16.60;;;;;;;;;;5045143;28;20509;-82
2022/05/02 11:07:42;;;;;;;18.03;16.17;;;;;;;;;;5036115;28;20402;-83
2022/05/02 11:10:10;;;;;;;17.17;15.33;;;;;;;;;;5043090;28;20425;-81
2022/05/02 11:12:51;;;;;;;18.17;16.27;;;;;;;;;;5029799;28;20437;-81
2022/05/02 11:15:17;;;;;;;15.93;14.17;;;;;;;;;;5022371;28;20394;-81
2022/05/02 11:18:09;;;;;;;14.20;12.37;;;;;;;;;;5040384;28;20904;-82
2022/05/02 11:20:41;;;;;;;13.77;12.30;;;;;;;;;;5044652;28;20409;-81
2022/05/02 11:23:07;;;;;;;12.40;11.10;;;;;;;;;;5018133;28;20493;-82
2022/05/02 11:25:52;;;;;;;11.83;10.10;;;;;;;;;;5043003;28;20470;-82
2022/05/02 11:28:37;;;;;;;13.40;11.47;;;;;;;;;;5044365;28;20478;-82
2022/05/02 11:31:21;;;;;;;11.27;10.07;;;;;;;;;;5034895;28;20469;-82
2022/05/02 11:34:03;;;;;;;12.90;11.60;;;;;;;;;;5051884;28;20486;-81
2022/05/02 11:36:32;;;;;;;12.07;10.70;;;;;;;;;;5036647;28;20419;-81
2022/05/02 11:39:09;;;;;;;11.80;10.20;;;;;;;;;;5049391;28;20480;-81
2022/05/02 11:41:41;;;;;;;12.53;11.23;;;;;;;;;;5041350;28;20418;-82
2022/05/02 11:44:09;;;;;;;11.43;10.20;;;;;;;;;;5052779;28;20426;-81
2022/05/02 11:46:55;;;;;;;13.33;10.77;;;;;;;;;;5037234;28;20418;-81
2022/05/02 11:49:21;;;;;;;13.50;11.40;;;;;;;;;;5024265;28;20452;-82
2022/05/02 11:51:50;;;;;;;12.67;10.60;;;;;;;;;;5050955;28;20873;-82
2022/05/02 11:54:19;;;;;;;9.03;8.13;;;;;;;;;;5039333;28;20482;-81
2022/05/02 11:56:55;;;;;;;9.17;7.97;;;;;;;;;;5049822;28;20416;-81
2022/05/02 11:59:23;;;;;;;10.00;8.67;;;;;;;;;;5038199;28;20438;-82
2022/05/02 12:01:52;;;;;;;8.70;7.80;;;;;;;;;;5042885;28;20419;-81
2022/05/02 12:04:21;;;;;;;8.67;7.10;;;;;;;;;;5045896;28;20455;-83
2022/05/02 12:07:08;;;;;;;10.93;9.73;;;;;;;;;;5034572;28;20779;-83
2022/05/02 12:09:34;;;;;;;10.43;8.60;;;;;;;;;;5044377;28;20391;-82
2022/05/02 12:12:07;;;;;;;9.60;8.70;;;;;;;;;;5040143;28;20447;-82
2022/05/02 12:14:33;;;;;;;9.93;8.83;;;;;;;;;;5036298;28;20472;-81
2022/05/02 12:17:09;;;;;;;8.13;7.33;;;;;;;;;;5032177;28;20419;-81
2022/05/02 12:19:36;;;;;;;9.30;8.33;;;;;;;;;;5032367;28;20450;-82
2022/05/02 12:22:08;;;;;;;10.20;9.00;;;;;;;;;;5031216;28;20427;-81
2022/05/02 12:24:36;;;;;;;10.83;8.93;;;;;;;;;;5048463;28;20395;-81
2022/05/02 12:27:07;;;;;;;8.40;7.60;;;;;;;;;;5035714;28;20725;-81
2022/05/02 12:29:35;;;;;;;9.53;7.87;;;;;;;;;;5044082;28;20454;-81
2022/05/02 12:32:05;;;;;;;8.30;7.03;;;;;;;;;;5043530;28;20434;-82
2022/05/02 12:34:35;;;;;;;8.77;7.63;;;;;;;;;;5036739;28;20407;-81
2022/05/02 12:37:04;;;;;;;9.47;8.20;;;;;;;;;;5048165;28;20415;-81
2022/05/02 12:39:58;;;;;;;9.00;8.10;;;;;;;;;;5039179;28;20446;-81
2022/05/02 12:42:25;;;;;;;9.77;8.77;;;;;;;;;;5029303;28;20455;-81
2022/05/02 12:44:59;;;;;;;10.47;9.10;;;;;;;;;;5048285;28;20410;-80
2022/05/02 12:47:26;;;;;;;9.60;8.70;;;;;;;;;;5037943;28;20391;-81
2022/05/02 12:50:05;;;;;;;9.20;8.23;;;;;;;;;;5042112;28;20474;-81
2022/05/02 12:52:32;;;;;;;18.23;15.27;;;;;;;;;;5047490;28;20422;-81
2022/05/02 12:54:58;;;;;;;10.00;9.03;;;;;;;;;;5035087;28;20403;-80
2022/05/02 13:00:36;;;;;;;10.40;8.63;;;;;;;;;;5048024;28;20399;-80
2022/05/02 13:03:10;;;;;;;10.37;8.77;;;;;;;;;;5035589;28;20421;-81
2022/05/02 13:05:38;;;;;;;9.10;8.13;;;;;;;;;;5052141;28;20444;-82
2022/05/02 13:08:09;;;;;;;8.97;8.07;;;;;;;;;;5039216;28;20438;-80
2022/05/02 13:10:36;;;;;;;9.37;8.47;;;;;;;;;;5047319;28;20406;-81
2022/05/02 13:13:04;;;;;;;8.00;7.20;;;;;;;;;;5034631;28;20430;-81
2022/05/02 13:15:40;;;;;;;7.90;7.20;;;;;;;;;;5044534;28;20434;-81
2022/05/02 13:18:26;;;;;;;9.20;8.30;;;;;;;;;;5043421;28;20524;-81
2022/05/02 13:21:01;;;;;;;8.50;7.80;;;;;;;;;;5034806;28;20411;-81
2022/05/02 13:23:41;;;;;;;7.63;6.83;;;;;;;;;;5044694;28;20430;-80
2022/05/02 13:26:08;;;;;;;6.90;6.20;;;;;;;;;;5044988;28;20402;-81
2022/05/02 13:28:34;;;;;;;7.30;6.30;;;;;;;;;;5051175;28;20406;-82
2022/05/02 13:31:18;;;;;;;6.13;5.53;;;;;;;;;;5034558;28;20506;-81
2022/05/02 13:33:49;;;;;;;5.67;5.00;;;;;;;;;;5041222;28;20435;-81
2022/05/02 13:36:16;;;;;;;6.13;5.53;;;;;;;;;;5044191;28;20418;-81
2022/05/02 13:38:53;;;;;;;6.00;5.40;;;;;;;;;;5050869;28;20522;-80
2022/05/02 13:41:54;;;;;;;5.67;5.10;;;;;;;;;;5030939;28;20466;-83
2022/05/02 13:44:38;;;;;;;4.70;4.30;;;;;;;;;;5020002;28;20426;-82
2022/05/02 13:47:11;;;;;;;6.97;6.27;;;;;;;;;;5032381;28;20409;-81
2022/05/02 13:50:03;;;;;;;6.87;6.17;;;;;;;;;;5041010;28;20407;-81
2022/05/02 13:52:38;;;;;;;8.57;7.37;;;;;;;;;;5038746;28;20485;-81
2022/05/02 13:55:10;;;;;;;7.00;6.30;;;;;;;;;;5030043;28;20413;-81
2022/05/02 13:57:44;;;;;;;7.27;6.57;;;;;;;;;;5039452;28;20473;-81
2022/05/02 14:03:16;;;;;;;5.43;4.50;;;;;;;;;;5011186;28;20457;-83
2022/05/02 14:05:56;;;;;;;5.47;4.87;;;;;;;;;;5049594;28;20386;-82
2022/05/02 14:08:29;;;;;;;6.03;5.50;;;;;;;;;;5034371;28;20402;-82
2022/05/02 14:10:57;;;;;;;6.60;5.20;;;;;;;;;;5046873;28;20434;-80
2022/05/02 14:13:24;;;;;;;5.80;5.10;;;;;;;;;;5049227;28;20418;-81
2022/05/02 14:15:50;;;;;;;5.80;5.17;;;;;;;;;;5015832;28;20442;-83
2022/05/02 14:18:18;;;;;;;6.70;5.50;;;;;;;;;;5028683;28;20478;-83
2022/05/02 14:20:45;;;;;;;5.97;5.00;;;;;;;;;;5031515;28;20397;-83
2022/05/02 14:23:12;;;;;;;5.67;4.80;;;;;;;;;;5031879;28;20415;-83
2022/05/02 14:25:43;;;;;;;5.87;5.03;;;;;;;;;;5035197;28;20403;-83
2022/05/02 14:28:10;;;;;;;4.80;4.30;;;;;;;;;;5044204;28;20418;-81
2022/05/02 14:30:38;;;;;;;5.43;3.97;;;;;;;;;;5036012;28;20447;-83
2022/05/02 14:33:10;;;;;;;6.13;3.67;;;;;;;;;;5026573;28;20491;-83
2022/05/02 14:35:38;;;;;;;4.80;4.30;;;;;;;;;;5026466;28;20450;-83
2022/05/02 14:38:06;;;;;;;4.30;3.90;;;;;;;;;;5040804;28;20443;-83
2022/05/02 14:40:32;;;;;;;3.63;3.05;;;;;;;;;;5046825;28;20374;-84
2022/05/02 14:42:59;;;;;;;4.13;3.73;;;;;;;;;;5040135;28;20219;-82
2022/05/02 14:45:25;;;;;;;4.70;3.50;;;;;;;;;;5030904;28;20422;-83
2022/05/02 14:47:52;;;;;;;4.47;2.93;;;;;;;;;;5052015;22;20575;-85
2022/05/02 14:50:21;;;;;;;4.30;3.40;;;;;;;;;;5038608;28;20457;-85
2022/05/02 14:52:48;;;;;;;3.87;3.40;;;;;;;;;;5026139;28;20400;-84
2022/05/02 14:55:16;;;;;;;4.40;3.50;;;;;;;;;;5041566;28;20410;-85
2022/05/02 14:57:46;;;;;;;3.80;3.50;;;;;;;;;;5040956;28;20958;-85
2022/05/02 15:00:13;;;;;;;5.20;4.07;;;;;;;;;;5024564;28;20414;-86
2022/05/02 15:02:40;;;;;;;5.13;4.63;;;;;;;;;;5032261;28;20406;-83
2022/05/02 15:05:08;;;;;;;4.67;3.57;;;;;;;;;;5031764;28;20468;-84
2022/05/02 15:07:53;;;;;;;4.37;3.97;;;;;;;;;;5032530;28;20521;-84
2022/05/02 15:10:19;;;;;;;5.00;4.50;;;;;;;;;;5026238;28;20411;-86
2022/05/02 15:12:45;;;;;;;3.60;3.30;;;;;;;;;;5019635;28;20779;-86
2022/05/02 15:15:23;;;;;;;4.10;3.70;;;;;;;;;;5023060;28;20418;-85
2022/05/02 15:18:12;;;;;;;4.50;4.10;;;;;;;;;;5021050;28;20565;-83